CGR weather

Campo Grande Airport
Campo Grande, Mato Grosso do Sul, Brazil

Public forecast

Using degrees Celsius for public forecast. Weather courtesy of forecast.io.

Current aviation weather report (METAR) for Campo Grande Airport

Retrieved 2020/02/28 18:00 UTC (32 minutes ago):

SBCG 281800Z VRB10KT 9999 BKN045 FEW050TCU 31/18 Q1014

Aviation forecast (TAF) for Campo Grande Airport

Forecast is more than 6 hours old.

Retrieved 2020/02/28 12:00 UTC (7 hours ago):

TAF SBCG 280900Z 2812/2912 12006KT CAVOK TX28/2818Z TN20/2909Z BECMG 2812/2814 9999 SCT035 BECMG 2820/2822 11010KT CAVOK RMK PDJ